sensor_id;sensor_type;location;lat;lon;timestamp;P1;durP1;ratioP1;P2;durP2;ratioP2
4206;SDS011;2117;47.972;7.830;2023-08-24T01:02:35;8.50;;;7.60;;
4206;SDS011;2117;47.972;7.830;2023-08-24T01:05:01;8.03;;;7.33;;
4206;SDS011;2117;47.972;7.830;2023-08-24T01:07:29;10.23;;;7.17;;
4206;SDS011;2117;47.972;7.830;2023-08-24T01:09:55;7.70;;;7.00;;
4206;SDS011;2117;47.972;7.830;2023-08-24T01:12:26;10.53;;;7.10;;
4206;SDS011;2117;47.972;7.830;2023-08-24T01:15:25;8.90;;;8.00;;
4206;SDS011;2117;47.972;7.830;2023-08-24T01:18:06;8.30;;;7.30;;
4206;SDS011;2117;47.972;7.830;2023-08-24T01:20:36;14.03;;;7.40;;
4206;SDS011;2117;47.972;7.830;2023-08-24T01:23:06;11.20;;;8.20;;
4206;SDS011;2117;47.972;7.830;2023-08-24T01:25:52;8.40;;;7.60;;
4206;SDS011;2117;47.972;7.830;2023-08-24T01:28:19;11.00;;;8.00;;
4206;SDS011;2117;47.972;7.830;2023-08-24T01:30:46;8.60;;;7.80;;
4206;SDS011;2117;47.972;7.830;2023-08-24T01:33:12;8.80;;;7.63;;
4206;SDS011;2117;47.972;7.830;2023-08-24T01:35:38;8.50;;;7.23;;
4206;SDS011;2117;47.972;7.830;2023-08-24T01:38:04;9.30;;;7.00;;
4206;SDS011;2117;47.972;7.830;2023-08-24T01:43:25;13.67;;;7.53;;
4206;SDS011;2117;47.972;7.830;2023-08-24T01:45:55;14.40;;;8.23;;
4206;SDS011;2117;47.972;7.830;2023-08-24T01:48:21;8.00;;;7.20;;
4206;SDS011;2117;47.972;7.830;2023-08-24T01:50:47;8.50;;;7.70;;
4206;SDS011;2117;47.972;7.830;2023-08-24T01:53:14;7.50;;;6.80;;
4206;SDS011;2117;47.972;7.830;2023-08-24T01:55:40;9.70;;;7.50;;
4206;SDS011;2117;47.972;7.830;2023-08-24T01:58:06;10.13;;;8.07;;
4206;SDS011;2117;47.972;7.830;2023-08-24T02:00:33;11.13;;;7.00;;
4206;SDS011;2117;47.972;7.830;2023-08-24T02:02:58;9.37;;;7.50;;
4206;SDS011;2117;47.972;7.830;2023-08-24T02:05:25;9.20;;;7.43;;
4206;SDS011;2117;47.972;7.830;2023-08-24T02:07:52;8.73;;;7.87;;
4206;SDS011;2117;47.972;7.830;2023-08-24T02:10:19;9.00;;;8.10;;
4206;SDS011;2117;47.972;7.830;2023-08-24T02:12:44;10.40;;;7.50;;
4206;SDS011;2117;47.972;7.830;2023-08-24T02:15:10;6.93;;;6.33;;
4206;SDS011;2117;47.972;7.830;2023-08-24T02:17:35;8.77;;;7.97;;
4206;SDS011;2117;47.972;7.830;2023-08-24T02:20:01;10.33;;;9.17;;
4206;SDS011;2117;47.972;7.830;2023-08-24T02:22:28;8.77;;;7.87;;
4206;SDS011;2117;47.972;7.830;2023-08-24T02:24:54;8.57;;;7.77;;
4206;SDS011;2117;47.972;7.830;2023-08-24T02:27:20;7.70;;;7.00;;
4206;SDS011;2117;47.972;7.830;2023-08-24T02:29:46;9.13;;;7.47;;
4206;SDS011;2117;47.972;7.830;2023-08-24T02:32:11;8.10;;;7.30;;
4206;SDS011;2117;47.972;7.830;2023-08-24T02:34:37;10.83;;;8.83;;
4206;SDS011;2117;47.972;7.830;2023-08-24T02:37:03;9.17;;;7.63;;
4206;SDS011;2117;47.972;7.830;2023-08-24T02:39:29;20.53;;;8.27;;
4206;SDS011;2117;47.972;7.830;2023-08-24T02:41:54;9.33;;;7.20;;
4206;SDS011;2117;47.972;7.830;2023-08-24T02:44:20;8.30;;;7.40;;
4206;SDS011;2117;47.972;7.830;2023-08-24T02:46:47;7.70;;;6.77;;
4206;SDS011;2117;47.972;7.830;2023-08-24T02:49:13;8.07;;;7.27;;
4206;SDS011;2117;47.972;7.830;2023-08-24T02:51:38;8.37;;;7.40;;
4206;SDS011;2117;47.972;7.830;2023-08-24T02:54:04;8.77;;;7.13;;
4206;SDS011;2117;47.972;7.830;2023-08-24T02:56:30;8.87;;;7.80;;
4206;SDS011;2117;47.972;7.830;2023-08-24T02:58:56;9.40;;;7.30;;
4206;SDS011;2117;47.972;7.830;2023-08-24T03:01:22;9.80;;;8.77;;
4206;SDS011;2117;47.972;7.830;2023-08-24T03:03:48;8.20;;;7.47;;
4206;SDS011;2117;47.972;7.830;2023-08-24T03:06:14;10.40;;;8.13;;
4206;SDS011;2117;47.972;7.830;2023-08-24T03:08:40;8.30;;;7.17;;
4206;SDS011;2117;47.972;7.830;2023-08-24T03:11:05;11.50;;;7.53;;
4206;SDS011;2117;47.972;7.830;2023-08-24T03:13:31;8.33;;;7.43;;
4206;SDS011;2117;47.972;7.830;2023-08-24T03:15:57;7.40;;;6.70;;
4206;SDS011;2117;47.972;7.830;2023-08-24T03:18:22;8.67;;;7.57;;
4206;SDS011;2117;47.972;7.830;2023-08-24T03:20:48;9.70;;;8.07;;
4206;SDS011;2117;47.972;7.830;2023-08-24T03:23:17;8.53;;;7.73;;
4206;SDS011;2117;47.972;7.830;2023-08-24T03:25:43;12.40;;;7.60;;
4206;SDS011;2117;47.972;7.830;2023-08-24T03:28:09;11.43;;;7.97;;
4206;SDS011;2117;47.972;7.830;2023-08-24T03:30:35;9.40;;;7.90;;
4206;SDS011;2117;47.972;7.830;2023-08-24T03:33:01;11.53;;;6.70;;
4206;SDS011;2117;47.972;7.830;2023-08-24T03:35:28;8.27;;;7.47;;
4206;SDS011;2117;47.972;7.830;2023-08-24T03:37:55;7.90;;;7.17;;
4206;SDS011;2117;47.972;7.830;2023-08-24T03:40:20;10.63;;;7.47;;
4206;SDS011;2117;47.972;7.830;2023-08-24T03:42:46;7.80;;;7.00;;
4206;SDS011;2117;47.972;7.830;2023-08-24T03:45:12;8.80;;;7.77;;
4206;SDS011;2117;47.972;7.830;2023-08-24T03:47:37;9.73;;;8.10;;
4206;SDS011;2117;47.972;7.830;2023-08-24T03:50:03;9.07;;;8.17;;
4206;SDS011;2117;47.972;7.830;2023-08-24T03:52:29;9.70;;;8.10;;
4206;SDS011;2117;47.972;7.830;2023-08-24T03:54:54;10.93;;;8.07;;
4206;SDS011;2117;47.972;7.830;2023-08-24T03:57:20;10.03;;;8.27;;
4206;SDS011;2117;47.972;7.830;2023-08-24T03:59:45;9.83;;;7.80;;
4206;SDS011;2117;47.972;7.830;2023-08-24T04:02:11;11.30;;;8.83;;
4206;SDS011;2117;47.972;7.830;2023-08-24T04:04:36;12.03;;;8.43;;
4206;SDS011;2117;47.972;7.830;2023-08-24T04:07:02;10.73;;;8.83;;
4206;SDS011;2117;47.972;7.830;2023-08-24T04:09:28;10.30;;;8.90;;
4206;SDS011;2117;47.972;7.830;2023-08-24T04:11:54;10.70;;;8.27;;
4206;SDS011;2117;47.972;7.830;2023-08-24T04:14:19;9.67;;;8.53;;
4206;SDS011;2117;47.972;7.830;2023-08-24T04:16:45;10.53;;;8.90;;
4206;SDS011;2117;47.972;7.830;2023-08-24T04:19:10;9.57;;;8.50;;
4206;SDS011;2117;47.972;7.830;2023-08-24T04:21:36;12.23;;;7.80;;
4206;SDS011;2117;47.972;7.830;2023-08-24T04:24:01;8.80;;;7.90;;
4206;SDS011;2117;47.972;7.830;2023-08-24T04:26:27;10.63;;;9.47;;
4206;SDS011;2117;47.972;7.830;2023-08-24T04:28:53;13.40;;;7.83;;
4206;SDS011;2117;47.972;7.830;2023-08-24T04:31:18;8.80;;;7.50;;
4206;SDS011;2117;47.972;7.830;2023-08-24T04:33:43;8.37;;;7.43;;
4206;SDS011;2117;47.972;7.830;2023-08-24T04:36:09;9.10;;;8.20;;
4206;SDS011;2117;47.972;7.830;2023-08-24T04:38:35;9.43;;;8.20;;
4206;SDS011;2117;47.972;7.830;2023-08-24T04:41:00;10.63;;;8.30;;
4206;SDS011;2117;47.972;7.830;2023-08-24T04:43:26;9.13;;;8.00;;
4206;SDS011;2117;47.972;7.830;2023-08-24T04:45:52;8.90;;;8.00;;
4206;SDS011;2117;47.972;7.830;2023-08-24T04:48:22;12.20;;;9.43;;
4206;SDS011;2117;47.972;7.830;2023-08-24T04:50:49;10.43;;;9.43;;
4206;SDS011;2117;47.972;7.830;2023-08-24T04:53:16;9.50;;;7.47;;
4206;SDS011;2117;47.972;7.830;2023-08-24T04:55:43;9.73;;;8.27;;
4206;SDS011;2117;47.972;7.830;2023-08-24T04:58:09;9.67;;;7.33;;
4206;SDS011;2117;47.972;7.830;2023-08-24T05:00:36;10.03;;;8.33;;
4206;SDS011;2117;47.972;7.830;2023-08-24T05:03:04;9.67;;;8.67;;
4206;SDS011;2117;47.972;7.830;2023-08-24T05:05:30;10.97;;;8.50;;
4206;SDS011;2117;47.972;7.830;2023-08-24T05:08:00;10.47;;;8.60;;
4206;SDS011;2117;47.972;7.830;2023-08-24T05:10:29;10.50;;;8.00;;
4206;SDS011;2117;47.972;7.830;2023-08-24T05:12:55;9.93;;;8.03;;
4206;SDS011;2117;47.972;7.830;2023-08-24T05:15:21;8.80;;;7.83;;
4206;SDS011;2117;47.972;7.830;2023-08-24T05:17:47;9.53;;;7.83;;
4206;SDS011;2117;47.972;7.830;2023-08-24T05:20:13;11.57;;;8.03;;
4206;SDS011;2117;47.972;7.830;2023-08-24T05:22:38;9.50;;;7.47;;
4206;SDS011;2117;47.972;7.830;2023-08-24T05:25:04;8.63;;;7.83;;
4206;SDS011;2117;47.972;7.830;2023-08-24T05:27:30;8.47;;;7.33;;
4206;SDS011;2117;47.972;7.830;2023-08-24T05:29:56;8.80;;;7.90;;
4206;SDS011;2117;47.972;7.830;2023-08-24T05:32:22;8.27;;;7.57;;
4206;SDS011;2117;47.972;7.830;2023-08-24T05:34:48;8.73;;;7.93;;
4206;SDS011;2117;47.972;7.830;2023-08-24T05:37:13;13.03;;;8.63;;
4206;SDS011;2117;47.972;7.830;2023-08-24T05:39:39;8.80;;;7.90;;
4206;SDS011;2117;47.972;7.830;2023-08-24T05:42:05;11.17;;;10.00;;
4206;SDS011;2117;47.972;7.830;2023-08-24T05:44:30;12.67;;;8.70;;
4206;SDS011;2117;47.972;7.830;2023-08-24T05:46:56;13.33;;;8.20;;
4206;SDS011;2117;47.972;7.830;2023-08-24T05:49:21;13.63;;;8.70;;
4206;SDS011;2117;47.972;7.830;2023-08-24T05:51:49;13.37;;;8.67;;
4206;SDS011;2117;47.972;7.830;2023-08-24T05:54:15;10.40;;;8.67;;
4206;SDS011;2117;47.972;7.830;2023-08-24T05:56:43;9.90;;;8.27;;
4206;SDS011;2117;47.972;7.830;2023-08-24T05:59:10;9.33;;;8.47;;
4206;SDS011;2117;47.972;7.830;2023-08-24T06:01:35;9.07;;;8.17;;
4206;SDS011;2117;47.972;7.830;2023-08-24T06:04:04;10.43;;;7.43;;
4206;SDS011;2117;47.972;7.830;2023-08-24T06:06:33;9.90;;;8.17;;
4206;SDS011;2117;47.972;7.830;2023-08-24T06:08:59;11.97;;;8.80;;
4206;SDS011;2117;47.972;7.830;2023-08-24T06:11:24;9.20;;;8.30;;
4206;SDS011;2117;47.972;7.830;2023-08-24T06:13:50;9.73;;;7.97;;
4206;SDS011;2117;47.972;7.830;2023-08-24T06:16:18;12.17;;;9.50;;
4206;SDS011;2117;47.972;7.830;2023-08-24T06:18:44;16.50;;;8.97;;
4206;SDS011;2117;47.972;7.830;2023-08-24T06:21:09;10.43;;;9.53;;
4206;SDS011;2117;47.972;7.830;2023-08-24T06:23:35;11.97;;;9.80;;
4206;SDS011;2117;47.972;7.830;2023-08-24T06:26:01;10.43;;;9.43;;
4206;SDS011;2117;47.972;7.830;2023-08-24T06:28:26;13.20;;;10.40;;
4206;SDS011;2117;47.972;7.830;2023-08-24T06:30:52;11.20;;;10.10;;
4206;SDS011;2117;47.972;7.830;2023-08-24T06:33:20;11.20;;;10.20;;
4206;SDS011;2117;47.972;7.830;2023-08-24T06:35:45;11.27;;;10.13;;
4206;SDS011;2117;47.972;7.830;2023-08-24T06:38:11;19.73;;;9.63;;
4206;SDS011;2117;47.972;7.830;2023-08-24T06:40:38;11.90;;;10.13;;
4206;SDS011;2117;47.972;7.830;2023-08-24T06:43:04;13.13;;;10.80;;
4206;SDS011;2117;47.972;7.830;2023-08-24T06:45:30;12.57;;;11.40;;
4206;SDS011;2117;47.972;7.830;2023-08-24T06:47:56;11.30;;;9.90;;
4206;SDS011;2117;47.972;7.830;2023-08-24T06:50:22;14.97;;;9.73;;
4206;SDS011;2117;47.972;7.830;2023-08-24T06:52:47;12.37;;;11.20;;
4206;SDS011;2117;47.972;7.830;2023-08-24T06:55:13;16.37;;;11.20;;
4206;SDS011;2117;47.972;7.830;2023-08-24T06:57:38;13.97;;;11.23;;
4206;SDS011;2117;47.972;7.830;2023-08-24T07:00:05;14.63;;;10.40;;
4206;SDS011;2117;47.972;7.830;2023-08-24T07:02:32;12.77;;;11.37;;
4206;SDS011;2117;47.972;7.830;2023-08-24T07:04:58;10.87;;;9.73;;
4206;SDS011;2117;47.972;7.830;2023-08-24T07:07:24;11.23;;;10.13;;
4206;SDS011;2117;47.972;7.830;2023-08-24T07:09:50;12.43;;;11.13;;
4206;SDS011;2117;47.972;7.830;2023-08-24T07:12:16;15.50;;;10.77;;
4206;SDS011;2117;47.972;7.830;2023-08-24T07:14:41;11.20;;;9.73;;
4206;SDS011;2117;47.972;7.830;2023-08-24T07:17:07;12.33;;;10.40;;
4206;SDS011;2117;47.972;7.830;2023-08-24T07:19:32;16.90;;;12.43;;
4206;SDS011;2117;47.972;7.830;2023-08-24T07:21:58;14.20;;;11.43;;
4206;SDS011;2117;47.972;7.830;2023-08-24T07:24:24;14.53;;;10.87;;
4206;SDS011;2117;47.972;7.830;2023-08-24T07:26:54;14.53;;;10.50;;
4206;SDS011;2117;47.972;7.830;2023-08-24T07:29:20;10.90;;;9.80;;
4206;SDS011;2117;47.972;7.830;2023-08-24T07:31:46;10.73;;;9.57;;
4206;SDS011;2117;47.972;7.830;2023-08-24T07:34:11;9.50;;;8.53;;
4206;SDS011;2117;47.972;7.830;2023-08-24T07:36:37;13.13;;;9.20;;
4206;SDS011;2117;47.972;7.830;2023-08-24T07:39:02;9.90;;;8.90;;
4206;SDS011;2117;47.972;7.830;2023-08-24T07:41:28;10.20;;;9.20;;
4206;SDS011;2117;47.972;7.830;2023-08-24T07:43:53;9.90;;;8.97;;
4206;SDS011;2117;47.972;7.830;2023-08-24T07:46:19;10.83;;;9.20;;
4206;SDS011;2117;47.972;7.830;2023-08-24T07:48:45;9.30;;;8.30;;
4206;SDS011;2117;47.972;7.830;2023-08-24T07:51:10;9.33;;;8.43;;
4206;SDS011;2117;47.972;7.830;2023-08-24T07:53:36;9.60;;;8.67;;
4206;SDS011;2117;47.972;7.830;2023-08-24T07:56:02;11.53;;;9.30;;
4206;SDS011;2117;47.972;7.830;2023-08-24T07:58:27;12.57;;;9.33;;
4206;SDS011;2117;47.972;7.830;2023-08-24T08:00:53;11.13;;;8.50;;
4206;SDS011;2117;47.972;7.830;2023-08-24T08:03:19;10.03;;;8.37;;
4206;SDS011;2117;47.972;7.830;2023-08-24T08:05:46;11.20;;;8.80;;
4206;SDS011;2117;47.972;7.830;2023-08-24T08:08:13;9.53;;;8.53;;
4206;SDS011;2117;47.972;7.830;2023-08-24T08:10:39;9.50;;;8.60;;
4206;SDS011;2117;47.972;7.830;2023-08-24T08:13:04;11.10;;;9.40;;
4206;SDS011;2117;47.972;7.830;2023-08-24T08:15:30;9.37;;;8.47;;
4206;SDS011;2117;47.972;7.830;2023-08-24T08:17:55;11.53;;;9.23;;
4206;SDS011;2117;47.972;7.830;2023-08-24T08:20:21;10.73;;;8.80;;
4206;SDS011;2117;47.972;7.830;2023-08-24T08:22:47;9.67;;;8.67;;
4206;SDS011;2117;47.972;7.830;2023-08-24T08:25:12;13.83;;;9.87;;
4206;SDS011;2117;47.972;7.830;2023-08-24T08:27:38;10.47;;;8.57;;
4206;SDS011;2117;47.972;7.830;2023-08-24T08:30:04;8.90;;;7.80;;
4206;SDS011;2117;47.972;7.830;2023-08-24T08:32:30;12.00;;;8.90;;
4206;SDS011;2117;47.972;7.830;2023-08-24T08:34:56;13.23;;;8.33;;
4206;SDS011;2117;47.972;7.830;2023-08-24T08:37:23;10.20;;;8.00;;
4206;SDS011;2117;47.972;7.830;2023-08-24T08:39:49;12.23;;;8.90;;
4206;SDS011;2117;47.972;7.830;2023-08-24T08:42:14;13.83;;;9.30;;
4206;SDS011;2117;47.972;7.830;2023-08-24T08:44:40;8.50;;;7.70;;
4206;SDS011;2117;47.972;7.830;2023-08-24T08:47:08;11.70;;;9.07;;
4206;SDS011;2117;47.972;7.830;2023-08-24T08:49:36;12.43;;;7.90;;
4206;SDS011;2117;47.972;7.830;2023-08-24T08:52:03;10.70;;;8.70;;
4206;SDS011;2117;47.972;7.830;2023-08-24T08:54:30;11.67;;;8.80;;
4206;SDS011;2117;47.972;7.830;2023-08-24T08:56:56;9.83;;;8.83;;
4206;SDS011;2117;47.972;7.830;2023-08-24T08:59:21;15.17;;;7.60;;
4206;SDS011;2117;47.972;7.830;2023-08-24T09:01:48;8.60;;;7.73;;
4206;SDS011;2117;47.972;7.830;2023-08-24T09:04:15;9.93;;;8.93;;
4206;SDS011;2117;47.972;7.830;2023-08-24T09:06:41;10.60;;;8.70;;
4206;SDS011;2117;47.972;7.830;2023-08-24T09:09:08;14.23;;;9.60;;
4206;SDS011;2117;47.972;7.830;2023-08-24T09:11:33;8.60;;;7.70;;
4206;SDS011;2117;47.972;7.830;2023-08-24T09:13:59;9.60;;;8.60;;
4206;SDS011;2117;47.972;7.830;2023-08-24T09:16:28;21.00;;;10.80;;
4206;SDS011;2117;47.972;7.830;2023-08-24T09:18:55;17.53;;;9.33;;
4206;SDS011;2117;47.972;7.830;2023-08-24T09:21:20;12.10;;;9.10;;
4206;SDS011;2117;47.972;7.830;2023-08-24T09:23:52;11.20;;;9.07;;
4206;SDS011;2117;47.972;7.830;2023-08-24T09:26:37;11.63;;;10.13;;
4206;SDS011;2117;47.972;7.830;2023-08-24T09:29:11;13.43;;;10.70;;
4206;SDS011;2117;47.972;7.830;2023-08-24T09:31:38;11.50;;;10.27;;
4206;SDS011;2117;47.972;7.830;2023-08-24T09:34:04;17.07;;;10.17;;
4206;SDS011;2117;47.972;7.830;2023-08-24T09:36:34;10.63;;;9.53;;
4206;SDS011;2117;47.972;7.830;2023-08-24T09:39:01;12.33;;;9.93;;
4206;SDS011;2117;47.972;7.830;2023-08-24T09:41:38;9.80;;;8.50;;
4206;SDS011;2117;47.972;7.830;2023-08-24T09:44:08;20.33;;;9.17;;
4206;SDS011;2117;47.972;7.830;2023-08-24T09:46:37;14.83;;;9.87;;
4206;SDS011;2117;47.972;7.830;2023-08-24T09:49:07;13.70;;;8.90;;
4206;SDS011;2117;47.972;7.830;2023-08-24T09:51:34;11.80;;;9.60;;
4206;SDS011;2117;47.972;7.830;2023-08-24T09:54:01;10.40;;;9.03;;
4206;SDS011;2117;47.972;7.830;2023-08-24T09:56:31;18.00;;;10.00;;
4206;SDS011;2117;47.972;7.830;2023-08-24T09:59:12;11.13;;;9.80;;
4206;SDS011;2117;47.972;7.830;2023-08-24T10:01:40;10.83;;;9.17;;
4206;SDS011;2117;47.972;7.830;2023-08-24T10:04:08;11.00;;;9.90;;
4206;SDS011;2117;47.972;7.830;2023-08-24T10:06:34;9.87;;;8.97;;
4206;SDS011;2117;47.972;7.830;2023-08-24T10:09:02;11.27;;;10.07;;
4206;SDS011;2117;47.972;7.830;2023-08-24T10:11:33;12.97;;;10.40;;
4206;SDS011;2117;47.972;7.830;2023-08-24T10:14:05;10.33;;;9.37;;
4206;SDS011;2117;47.972;7.830;2023-08-24T10:16:40;9.77;;;8.97;;
4206;SDS011;2117;47.972;7.830;2023-08-24T10:19:07;11.73;;;9.50;;
4206;SDS011;2117;47.972;7.830;2023-08-24T10:21:33;10.80;;;9.63;;
4206;SDS011;2117;47.972;7.830;2023-08-24T10:24:00;12.50;;;8.80;;
4206;SDS011;2117;47.972;7.830;2023-08-24T10:26:26;10.93;;;9.83;;
4206;SDS011;2117;47.972;7.830;2023-08-24T10:28:52;10.40;;;9.47;;
4206;SDS011;2117;47.972;7.830;2023-08-24T10:31:18;11.87;;;8.53;;
4206;SDS011;2117;47.972;7.830;2023-08-24T10:33:45;10.40;;;9.30;;
4206;SDS011;2117;47.972;7.830;2023-08-24T10:36:15;13.20;;;9.33;;
4206;SDS011;2117;47.972;7.830;2023-08-24T10:38:43;11.73;;;9.37;;
4206;SDS011;2117;47.972;7.830;2023-08-24T10:41:08;9.77;;;8.87;;
4206;SDS011;2117;47.972;7.830;2023-08-24T10:43:38;12.33;;;9.10;;
4206;SDS011;2117;47.972;7.830;2023-08-24T10:46:04;13.77;;;8.87;;
4206;SDS011;2117;47.972;7.830;2023-08-24T10:53:39;10.53;;;9.33;;
4206;SDS011;2117;47.972;7.830;2023-08-24T10:56:12;10.50;;;9.03;;
4206;SDS011;2117;47.972;7.830;2023-08-24T10:58:42;10.03;;;9.00;;
4206;SDS011;2117;47.972;7.830;2023-08-24T11:01:19;12.50;;;9.33;;
4206;SDS011;2117;47.972;7.830;2023-08-24T11:03:50;12.47;;;9.10;;
4206;SDS011;2117;47.972;7.830;2023-08-24T11:06:23;10.27;;;9.27;;
4206;SDS011;2117;47.972;7.830;2023-08-24T11:09:05;10.60;;;9.53;;
4206;SDS011;2117;47.972;7.830;2023-08-24T11:11:38;10.23;;;8.83;;
4206;SDS011;2117;47.972;7.830;2023-08-24T11:14:14;11.50;;;9.60;;
4206;SDS011;2117;47.972;7.830;2023-08-24T11:16:56;18.20;;;10.10;;
4206;SDS011;2117;47.972;7.830;2023-08-24T11:19:24;10.45;;;9.32;;
4206;SDS011;2117;47.972;7.830;2023-08-24T11:21:50;9.65;;;8.50;;
4206;SDS011;2117;47.972;7.830;2023-08-24T11:24:17;11.93;;;8.75;;
4206;SDS011;2117;47.972;7.830;2023-08-24T11:26:46;14.05;;;8.85;;
4206;SDS011;2117;47.972;7.830;2023-08-24T11:29:13;10.95;;;8.30;;
4206;SDS011;2117;47.972;7.830;2023-08-24T11:31:40;10.82;;;9.65;;
4206;SDS011;2117;47.972;7.830;2023-08-24T11:34:06;9.38;;;8.40;;
4206;SDS011;2117;47.972;7.830;2023-08-24T11:36:48;16.58;;;8.48;;
4206;SDS011;2117;47.972;7.830;2023-08-24T11:39:23;9.73;;;8.73;;
4206;SDS011;2117;47.972;7.830;2023-08-24T11:44:23;10.02;;;8.23;;
4206;SDS011;2117;47.972;7.830;2023-08-24T11:46:48;10.10;;;9.15;;
4206;SDS011;2117;47.972;7.830;2023-08-24T11:49:14;10.57;;;8.32;;
4206;SDS011;2117;47.972;7.830;2023-08-24T11:51:40;8.90;;;8.05;;
4206;SDS011;2117;47.972;7.830;2023-08-24T11:54:05;8.85;;;8.02;;
4206;SDS011;2117;47.972;7.830;2023-08-24T11:56:31;9.52;;;8.07;;
4206;SDS011;2117;47.972;7.830;2023-08-24T11:58:57;9.27;;;7.85;;
4206;SDS011;2117;47.972;7.830;2023-08-24T12:01:22;8.68;;;7.78;;
4206;SDS011;2117;47.972;7.830;2023-08-24T12:03:49;10.95;;;8.18;;
4206;SDS011;2117;47.972;7.830;2023-08-24T12:06:16;14.93;;;8.82;;
4206;SDS011;2117;47.972;7.830;2023-08-24T12:08:43;11.07;;;8.50;;
4206;SDS011;2117;47.972;7.830;2023-08-24T12:11:14;9.90;;;8.90;;
4206;SDS011;2117;47.972;7.830;2023-08-24T12:13:48;9.00;;;8.02;;
4206;SDS011;2117;47.972;7.830;2023-08-24T12:16:16;11.07;;;9.07;;
4206;SDS011;2117;47.972;7.830;2023-08-24T12:18:53;13.18;;;9.48;;
4206;SDS011;2117;47.972;7.830;2023-08-24T12:21:24;9.52;;;8.60;;
4206;SDS011;2117;47.972;7.830;2023-08-24T12:24:00;9.13;;;8.32;;
4206;SDS011;2117;47.972;7.830;2023-08-24T12:26:33;10.70;;;8.18;;
4206;SDS011;2117;47.972;7.830;2023-08-24T12:29:00;11.15;;;7.97;;
4206;SDS011;2117;47.972;7.830;2023-08-24T12:31:33;10.98;;;8.88;;
4206;SDS011;2117;47.972;7.830;2023-08-24T12:34:06;13.30;;;7.90;;
4206;SDS011;2117;47.972;7.830;2023-08-24T12:36:37;9.82;;;8.88;;
4206;SDS011;2117;47.972;7.830;2023-08-24T12:39:04;11.52;;;8.75;;
4206;SDS011;2117;47.972;7.830;2023-08-24T12:41:30;14.90;;;9.10;;
4206;SDS011;2117;47.972;7.830;2023-08-24T12:43:56;10.57;;;8.23;;
4206;SDS011;2117;47.972;7.830;2023-08-24T12:46:22;11.88;;;8.52;;
4206;SDS011;2117;47.972;7.830;2023-08-24T12:48:49;9.15;;;7.80;;
4206;SDS011;2117;47.972;7.830;2023-08-24T12:51:15;10.38;;;9.38;;
4206;SDS011;2117;47.972;7.830;2023-08-24T12:53:41;9.98;;;8.38;;
4206;SDS011;2117;47.972;7.830;2023-08-24T12:56:07;9.25;;;8.45;;
4206;SDS011;2117;47.972;7.830;2023-08-24T12:58:32;9.48;;;7.60;;
4206;SDS011;2117;47.972;7.830;2023-08-24T13:00:58;15.82;;;9.88;;
4206;SDS011;2117;47.972;7.830;2023-08-24T13:03:24;9.63;;;8.63;;
4206;SDS011;2117;47.972;7.830;2023-08-24T13:05:50;10.48;;;8.20;;
4206;SDS011;2117;47.972;7.830;2023-08-24T13:08:15;13.02;;;8.35;;
4206;SDS011;2117;47.972;7.830;2023-08-24T13:10:41;12.45;;;8.93;;
4206;SDS011;2117;47.972;7.830;2023-08-24T13:13:07;12.73;;;8.40;;
4206;SDS011;2117;47.972;7.830;2023-08-24T13:15:33;10.55;;;8.38;;
4206;SDS011;2117;47.972;7.830;2023-08-24T13:17:58;12.27;;;9.10;;
4206;SDS011;2117;47.972;7.830;2023-08-24T13:20:24;14.07;;;8.07;;
4206;SDS011;2117;47.972;7.830;2023-08-24T13:22:52;18.73;;;8.68;;
4206;SDS011;2117;47.972;7.830;2023-08-24T13:25:18;14.05;;;7.85;;
4206;SDS011;2117;47.972;7.830;2023-08-24T13:27:44;15.48;;;8.93;;
4206;SDS011;2117;47.972;7.830;2023-08-24T13:30:10;13.30;;;7.50;;
4206;SDS011;2117;47.972;7.830;2023-08-24T13:32:35;11.15;;;7.90;;
4206;SDS011;2117;47.972;7.830;2023-08-24T13:35:02;9.50;;;8.40;;
4206;SDS011;2117;47.972;7.830;2023-08-24T13:37:28;11.73;;;7.90;;
4206;SDS011;2117;47.972;7.830;2023-08-24T13:39:53;8.63;;;7.88;;
4206;SDS011;2117;47.972;7.830;2023-08-24T13:42:19;11.52;;;8.57;;
4206;SDS011;2117;47.972;7.830;2023-08-24T13:44:45;8.57;;;7.40;;
4206;SDS011;2117;47.972;7.830;2023-08-24T13:47:11;11.10;;;8.20;;
4206;SDS011;2117;47.972;7.830;2023-08-24T13:49:36;13.05;;;7.65;;
4206;SDS011;2117;47.972;7.830;2023-08-24T13:52:02;15.25;;;7.57;;
4206;SDS011;2117;47.972;7.830;2023-08-24T13:54:29;14.48;;;7.00;;
4206;SDS011;2117;47.972;7.830;2023-08-24T13:56:55;14.27;;;7.45;;
4206;SDS011;2117;47.972;7.830;2023-08-24T13:59:21;9.27;;;7.68;;
4206;SDS011;2117;47.972;7.830;2023-08-24T14:01:47;10.52;;;6.80;;
4206;SDS011;2117;47.972;7.830;2023-08-24T14:04:13;19.60;;;7.22;;
4206;SDS011;2117;47.972;7.830;2023-08-24T14:06:38;8.73;;;7.00;;
4206;SDS011;2117;47.972;7.830;2023-08-24T14:09:04;11.23;;;6.35;;
4206;SDS011;2117;47.972;7.830;2023-08-24T14:11:30;12.23;;;7.20;;
4206;SDS011;2117;47.972;7.830;2023-08-24T14:13:55;12.80;;;6.50;;
4206;SDS011;2117;47.972;7.830;2023-08-24T14:16:22;10.93;;;6.53;;
4206;SDS011;2117;47.972;7.830;2023-08-24T14:18:47;10.38;;;5.93;;
4206;SDS011;2117;47.972;7.830;2023-08-24T14:21:13;10.27;;;7.13;;
4206;SDS011;2117;47.972;7.830;2023-08-24T14:23:40;17.13;;;7.72;;
4206;SDS011;2117;47.972;7.830;2023-08-24T14:26:05;13.20;;;6.13;;
4206;SDS011;2117;47.972;7.830;2023-08-24T14:31:19;18.15;;;7.80;;
4206;SDS011;2117;47.972;7.830;2023-08-24T14:33:45;12.00;;;6.53;;
4206;SDS011;2117;47.972;7.830;2023-08-24T14:36:10;10.32;;;6.15;;
4206;SDS011;2117;47.972;7.830;2023-08-24T14:38:40;17.48;;;7.28;;
4206;SDS011;2117;47.972;7.830;2023-08-24T14:41:06;16.23;;;6.50;;
4206;SDS011;2117;47.972;7.830;2023-08-24T14:43:33;25.27;;;6.90;;
4206;SDS011;2117;47.972;7.830;2023-08-24T14:45:59;10.60;;;6.85;;
4206;SDS011;2117;47.972;7.830;2023-08-24T14:48:24;17.70;;;6.60;;
4206;SDS011;2117;47.972;7.830;2023-08-24T14:50:50;9.23;;;6.45;;
4206;SDS011;2117;47.972;7.830;2023-08-24T14:53:16;11.70;;;6.07;;
4206;SDS011;2117;47.972;7.830;2023-08-24T14:55:41;16.45;;;6.78;;
4206;SDS011;2117;47.972;7.830;2023-08-24T14:58:07;16.20;;;7.15;;
4206;SDS011;2117;47.972;7.830;2023-08-24T15:00:33;16.05;;;6.97;;
4206;SDS011;2117;47.972;7.830;2023-08-24T15:02:59;21.00;;;7.30;;
4206;SDS011;2117;47.972;7.830;2023-08-24T15:05:24;22.05;;;6.55;;
4206;SDS011;2117;47.972;7.830;2023-08-24T15:07:50;9.85;;;6.82;;
4206;SDS011;2117;47.972;7.830;2023-08-24T15:10:16;13.00;;;7.38;;
4206;SDS011;2117;47.972;7.830;2023-08-24T15:12:42;20.73;;;6.70;;
4206;SDS011;2117;47.972;7.830;2023-08-24T15:15:08;15.27;;;6.30;;
4206;SDS011;2117;47.972;7.830;2023-08-24T15:17:35;9.35;;;6.95;;
4206;SDS011;2117;47.972;7.830;2023-08-24T15:20:01;8.23;;;6.80;;
4206;SDS011;2117;47.972;7.830;2023-08-24T15:22:30;13.77;;;7.32;;
4206;SDS011;2117;47.972;7.830;2023-08-24T15:24:56;9.27;;;7.10;;
4206;SDS011;2117;47.972;7.830;2023-08-24T15:27:22;20.13;;;9.38;;
4206;SDS011;2117;47.972;7.830;2023-08-24T15:29:47;11.82;;;8.90;;
4206;SDS011;2117;47.972;7.830;2023-08-24T15:32:13;13.77;;;9.43;;
4206;SDS011;2117;47.972;7.830;2023-08-24T15:34:41;10.93;;;9.90;;
4206;SDS011;2117;47.972;7.830;2023-08-24T15:37:06;11.95;;;10.75;;
4206;SDS011;2117;47.972;7.830;2023-08-24T15:39:36;13.57;;;9.40;;
4206;SDS011;2117;47.972;7.830;2023-08-24T15:42:05;21.33;;;9.75;;
4206;SDS011;2117;47.972;7.830;2023-08-24T15:44:32;13.57;;;9.80;;
4206;SDS011;2117;47.972;7.830;2023-08-24T15:46:58;13.05;;;9.48;;
4206;SDS011;2117;47.972;7.830;2023-08-24T15:49:25;12.88;;;10.07;;
4206;SDS011;2117;47.972;7.830;2023-08-24T15:51:51;11.35;;;10.15;;
4206;SDS011;2117;47.972;7.830;2023-08-24T15:54:17;12.82;;;9.82;;
4206;SDS011;2117;47.972;7.830;2023-08-24T15:56:43;10.30;;;9.10;;
4206;SDS011;2117;47.972;7.830;2023-08-24T15:59:16;10.90;;;9.05;;
4206;SDS011;2117;47.972;7.830;2023-08-24T16:01:43;13.50;;;9.20;;
4206;SDS011;2117;47.972;7.830;2023-08-24T16:04:09;11.15;;;10.13;;
4206;SDS011;2117;47.972;7.830;2023-08-24T16:06:36;12.53;;;9.93;;
4206;SDS011;2117;47.972;7.830;2023-08-24T16:09:01;11.93;;;9.50;;
4206;SDS011;2117;47.972;7.830;2023-08-24T16:11:28;10.67;;;9.67;;
4206;SDS011;2117;47.972;7.830;2023-08-24T16:13:54;11.80;;;9.30;;
4206;SDS011;2117;47.972;7.830;2023-08-24T16:16:19;45.73;;;11.33;;
4206;SDS011;2117;47.972;7.830;2023-08-24T16:18:45;11.00;;;9.67;;